Time;durP1;ratioP1;P1;durP2;ratioP2;P2;SDS_P1;SDS_P2;PMS_P1;PMS_P2;Temp;Humidity;BMP_temperature;BMP_pressure;BME280_temperature;BME280_humidity;BME280_pressure;Samples;Min_cycle;Max_cycle;Signal;HPM_P1;HPM_P2
2023/08/14 00:00:12;;;;;;;0.00;0.00;;;16.80;82.00;;;;;;5043558;28;20038;-65
2023/08/14 00:02:37;;;;;;;0.00;0.00;;;16.80;82.10;;;;;;5028854;28;20378;-65
2023/08/14 00:05:03;;;;;;;0.10;0.10;;;16.70;82.00;;;;;;5029441;28;20057;-66
2023/08/14 00:07:29;;;;;;;0.00;0.00;;;16.70;82.00;;;;;;5029013;28;20084;-66
2023/08/14 00:09:54;;;;;;;0.00;0.00;;;16.70;82.00;;;;;;5029092;28;20049;-65
2023/08/14 00:12:20;;;;;;;0.00;0.00;;;16.60;82.00;;;;;;5028597;28;20046;-66
2023/08/14 00:14:45;;;;;;;0.00;0.00;;;16.60;82.10;;;;;;5028993;28;20139;-66
2023/08/14 00:17:11;;;;;;;0.00;0.00;;;16.60;82.20;;;;;;5029154;28;20052;-67
2023/08/14 00:19:36;;;;;;;0.00;0.00;;;16.60;82.20;;;;;;5028805;28;20045;-66
2023/08/14 00:22:02;;;;;;;0.10;0.10;;;16.60;82.30;;;;;;5028698;28;20491;-67
2023/08/14 00:24:27;;;;;;;0.00;0.00;;;16.60;82.30;;;;;;5029033;28;20049;-67
2023/08/14 00:26:53;;;;;;;0.00;0.00;;;16.60;82.50;;;;;;5029167;28;20045;-67
2023/08/14 00:29:18;;;;;;;0.00;0.00;;;16.60;82.40;;;;;;5028975;28;20072;-66
2023/08/14 00:31:44;;;;;;;0.00;0.00;;;16.50;82.60;;;;;;5028611;28;20041;-67
2023/08/14 00:34:09;;;;;;;0.00;0.00;;;16.60;82.70;;;;;;5029038;28;20185;-67
2023/08/14 00:36:35;;;;;;;0.00;0.00;;;16.60;82.70;;;;;;5028815;28;20041;-66
2023/08/14 00:39:01;;;;;;;0.00;0.00;;;16.60;82.80;;;;;;5029102;28;20048;-67
2023/08/14 00:41:26;;;;;;;0.00;0.00;;;16.60;82.80;;;;;;5032687;28;20038;-67
2023/08/14 00:43:52;;;;;;;0.00;0.00;;;16.60;82.80;;;;;;5032166;28;20056;-67
2023/08/14 00:46:19;;;;;;;0.00;0.00;;;16.60;82.90;;;;;;5032345;28;20049;-67
2023/08/14 00:48:45;;;;;;;0.00;0.00;;;16.50;82.90;;;;;;5032585;28;20410;-67
2023/08/14 00:51:10;;;;;;;0.00;0.00;;;16.50;83.00;;;;;;5048300;28;20045;-67
2023/08/14 00:53:36;;;;;;;0.00;0.00;;;16.50;83.00;;;;;;5052128;28;20041;-67
2023/08/14 00:56:03;;;;;;;0.05;0.05;;;16.50;83.00;;;;;;5039016;28;20049;-66
2023/08/14 00:58:29;;;;;;;0.00;0.00;;;16.50;83.00;;;;;;5033269;28;20045;-67
2023/08/14 01:00:56;;;;;;;0.00;0.00;;;16.50;83.00;;;;;;5032202;28;20052;-67
2023/08/14 01:03:24;;;;;;;0.00;0.00;;;16.50;83.00;;;;;;5031718;28;20108;-67
2023/08/14 01:05:49;;;;;;;0.00;0.00;;;16.50;83.00;;;;;;5030821;28;20042;-67
2023/08/14 01:08:15;;;;;;;0.00;0.00;;;16.50;83.20;;;;;;5031804;28;20067;-67
2023/08/14 01:11:01;;;;;;;0.00;0.00;;;16.50;83.20;;;;;;5031101;28;20084;-67
2023/08/14 01:13:36;;;;;;;0.00;0.00;;;16.50;83.20;;;;;;5031731;28;20038;-67
2023/08/14 01:16:09;;;;;;;0.00;0.00;;;16.50;83.10;;;;;;5030667;28;20049;-67
2023/08/14 01:18:38;;;;;;;0.00;0.00;;;16.50;83.00;;;;;;5032378;28;20135;-67
2023/08/14 01:21:21;;;;;;;0.00;0.00;;;16.50;83.10;;;;;;5033404;28;20052;-67
2023/08/14 01:24:05;;;;;;;0.00;0.00;;;16.40;83.10;;;;;;5051969;28;20146;-67
2023/08/14 01:26:32;;;;;;;0.00;0.00;;;16.40;83.20;;;;;;5034546;28;20072;-67
2023/08/14 01:28:58;;;;;;;0.00;0.00;;;16.40;83.30;;;;;;5051878;28;20048;-67
2023/08/14 01:31:24;;;;;;;0.00;0.00;;;16.30;83.20;;;;;;5039363;28;20457;-66
2023/08/14 01:33:50;;;;;;;0.00;0.00;;;16.40;83.30;;;;;;5031166;28;20049;-67
2023/08/14 01:36:43;;;;;;;0.00;0.00;;;16.30;83.40;;;;;;5031144;28;20049;-67
2023/08/14 01:39:09;;;;;;;0.00;0.00;;;16.30;83.50;;;;;;5031852;28;20387;-66
2023/08/14 01:41:46;;;;;;;0.00;0.00;;;16.30;83.50;;;;;;5051416;28;20087;-66
2023/08/14 01:44:15;;;;;;;0.00;0.00;;;16.30;83.50;;;;;;5033475;28;20041;-66
2023/08/14 01:46:43;;;;;;;0.00;0.00;;;16.20;83.60;;;;;;4997498;28;20049;-66
2023/08/14 01:49:11;;;;;;;0.00;0.00;;;16.20;83.60;;;;;;5031762;28;20050;-66
2023/08/14 01:51:38;;;;;;;0.00;0.00;;;16.30;83.60;;;;;;5030744;28;20095;-66
2023/08/14 01:54:04;;;;;;;0.00;0.00;;;16.20;83.70;;;;;;5031352;28;20088;-66
2023/08/14 01:56:30;;;;;;;0.00;0.00;;;16.20;83.60;;;;;;5050294;28;20051;-66
2023/08/14 01:58:55;;;;;;;0.00;0.00;;;16.20;83.70;;;;;;5050894;28;20405;-66
2023/08/14 02:01:21;;;;;;;0.00;0.00;;;16.20;83.70;;;;;;5051330;28;20052;-66
2023/08/14 02:03:46;;;;;;;0.00;0.00;;;16.20;83.70;;;;;;5051361;28;20524;-66
2023/08/14 02:06:12;;;;;;;0.00;0.00;;;16.20;83.80;;;;;;5050847;28;20057;-67
2023/08/14 02:08:37;;;;;;;0.00;0.00;;;16.20;83.90;;;;;;5051131;28;20084;-67
2023/08/14 02:11:07;;;;;;;0.00;0.00;;;16.20;83.90;;;;;;5051032;28;20037;-66
2023/08/14 02:13:32;;;;;;;0.00;0.00;;;16.20;84.00;;;;;;5050860;28;20053;-67
2023/08/14 02:15:58;;;;;;;0.00;0.00;;;16.10;84.00;;;;;;5050910;28;20052;-66
2023/08/14 02:18:23;;;;;;;0.00;0.00;;;16.20;84.10;;;;;;5050587;28;20086;-66
2023/08/14 02:20:49;;;;;;;0.00;0.00;;;16.10;84.10;;;;;;5032404;28;20045;-67
2023/08/14 02:23:15;;;;;;;0.00;0.00;;;16.20;84.20;;;;;;5030978;28;20073;-67
2023/08/14 02:25:44;;;;;;;0.00;0.00;;;16.20;84.20;;;;;;5030351;28;20084;-67
2023/08/14 02:28:10;;;;;;;0.00;0.00;;;16.20;84.20;;;;;;5013030;28;20120;-67
2023/08/14 02:30:38;;;;;;;0.00;0.00;;;16.20;84.30;;;;;;5016580;28;20039;-67
2023/08/14 02:33:04;;;;;;;0.00;0.00;;;16.20;84.40;;;;;;5012444;28;20087;-67
2023/08/14 02:35:29;;;;;;;0.00;0.00;;;16.10;84.20;;;;;;5030349;28;20045;-67
2023/08/14 02:37:55;;;;;;;0.00;0.00;;;16.20;84.10;;;;;;5030361;28;20045;-67
2023/08/14 02:40:20;;;;;;;0.00;0.00;;;16.10;84.00;;;;;;5030301;28;21608;-67
2023/08/14 02:42:46;;;;;;;0.00;0.00;;;16.10;84.00;;;;;;5030082;28;20044;-67
2023/08/14 02:45:12;;;;;;;0.00;0.00;;;16.10;83.90;;;;;;5050100;28;20045;-67
2023/08/14 02:47:38;;;;;;;0.00;0.00;;;16.10;83.90;;;;;;5035085;28;20077;-67
2023/08/14 02:50:04;;;;;;;0.00;0.00;;;16.00;83.90;;;;;;5030515;28;20045;-67
2023/08/14 02:52:30;;;;;;;0.00;0.00;;;16.00;83.90;;;;;;5030213;28;20046;-67
2023/08/14 02:54:55;;;;;;;0.00;0.00;;;16.00;83.90;;;;;;5030351;28;20115;-67
2023/08/14 02:57:21;;;;;;;0.00;0.00;;;16.00;84.00;;;;;;5029827;28;20095;-67
2023/08/14 02:59:46;;;;;;;0.00;0.00;;;16.00;84.00;;;;;;5029229;28;20129;-66
2023/08/14 03:02:12;;;;;;;0.00;0.00;;;16.00;84.00;;;;;;5027975;28;20046;-67
2023/08/14 03:04:37;;;;;;;0.00;0.00;;;15.90;84.10;;;;;;5028597;28;20037;-67
2023/08/14 03:07:03;;;;;;;0.00;0.00;;;15.90;84.10;;;;;;5028412;28;20045;-67
2023/08/14 03:09:29;;;;;;;0.00;0.00;;;15.90;84.20;;;;;;5028200;28;20050;-67
2023/08/14 03:11:54;;;;;;;0.00;0.00;;;15.80;84.10;;;;;;5028606;28;20037;-67
2023/08/14 03:14:20;;;;;;;0.00;0.00;;;15.90;84.20;;;;;;5028480;28;20049;-67
2023/08/14 03:16:45;;;;;;;0.00;0.00;;;15.80;84.20;;;;;;5026763;28;20136;-67
2023/08/14 03:19:11;;;;;;;0.00;0.00;;;15.80;84.20;;;;;;5029870;28;20052;-67
2023/08/14 03:21:37;;;;;;;0.00;0.00;;;15.80;84.30;;;;;;5015890;28;20060;-67
2023/08/14 03:24:03;;;;;;;0.00;0.00;;;15.90;84.50;;;;;;5029183;28;20475;-67
2023/08/14 03:26:28;;;;;;;0.00;0.00;;;15.80;84.50;;;;;;5029635;28;20100;-67
2023/08/14 03:28:54;;;;;;;0.00;0.00;;;15.80;84.40;;;;;;5028999;28;20521;-67
2023/08/14 03:31:19;;;;;;;0.00;0.00;;;15.80;84.40;;;;;;5028854;28;20422;-67
2023/08/14 03:33:45;;;;;;;0.00;0.00;;;15.80;84.30;;;;;;5029150;28;20433;-67
2023/08/14 03:36:10;;;;;;;0.00;0.00;;;15.80;84.30;;;;;;5023906;28;20835;-67
2023/08/14 03:38:36;;;;;;;0.00;0.00;;;15.80;84.30;;;;;;5029508;28;20049;-67
2023/08/14 03:41:03;;;;;;;0.00;0.00;;;15.70;84.30;;;;;;5022784;28;20037;-67
2023/08/14 03:43:29;;;;;;;0.00;0.00;;;15.70;84.30;;;;;;5009462;28;20168;-67
2023/08/14 03:45:54;;;;;;;0.00;0.00;;;15.80;84.40;;;;;;5017894;28;20538;-67
2023/08/14 03:48:20;;;;;;;0.00;0.00;;;15.70;84.30;;;;;;5028791;28;20068;-67
2023/08/14 03:50:48;;;;;;;0.00;0.00;;;15.60;84.30;;;;;;5029184;28;20052;-67
2023/08/14 03:53:14;;;;;;;0.00;0.00;;;15.70;84.50;;;;;;5028644;28;20044;-67
2023/08/14 03:55:40;;;;;;;0.00;0.00;;;15.70;84.50;;;;;;5028944;28;20037;-67
2023/08/14 03:58:06;;;;;;;0.00;0.00;;;15.70;84.50;;;;;;5029029;28;20048;-68
2023/08/14 04:00:31;;;;;;;0.00;0.00;;;15.70;84.60;;;;;;5029033;28;20099;-67
2023/08/14 04:02:57;;;;;;;0.00;0.00;;;15.60;84.70;;;;;;5028802;28;20045;-67
2023/08/14 04:05:22;;;;;;;0.00;0.00;;;15.70;84.70;;;;;;5029334;28;20085;-67
2023/08/14 04:07:48;;;;;;;0.00;0.00;;;15.70;84.80;;;;;;5028877;28;20053;-67
2023/08/14 04:10:14;;;;;;;0.00;0.00;;;15.80;84.80;;;;;;5028865;28;20130;-67
2023/08/14 04:12:39;;;;;;;0.00;0.00;;;15.70;84.80;;;;;;5028695;28;20038;-67
2023/08/14 04:15:13;;;;;;;0.00;0.00;;;15.70;84.70;;;;;;5032017;28;20080;-67
2023/08/14 04:17:48;;;;;;;0.00;0.00;;;15.80;84.80;;;;;;5032725;28;20402;-67
2023/08/14 04:20:14;;;;;;;0.00;0.00;;;15.70;84.80;;;;;;5032519;28;20057;-67
2023/08/14 04:22:46;;;;;;;0.00;0.00;;;15.70;84.90;;;;;;5032426;28;20064;-67
2023/08/14 04:25:16;;;;;;;0.10;0.10;;;15.70;84.90;;;;;;5032991;28;20049;-67
2023/08/14 04:27:45;;;;;;;0.00;0.00;;;15.70;84.90;;;;;;5031889;28;20045;-66
2023/08/14 04:30:11;;;;;;;0.00;0.00;;;15.70;84.90;;;;;;5032757;28;21071;-67
2023/08/14 04:32:37;;;;;;;0.00;0.00;;;15.70;84.90;;;;;;5032002;28;20053;-67
2023/08/14 04:35:11;;;;;;;0.00;0.00;;;15.70;84.80;;;;;;5020160;28;20069;-67
2023/08/14 04:37:37;;;;;;;0.00;0.00;;;15.70;84.80;;;;;;5020863;28;20156;-67
2023/08/14 04:40:06;;;;;;;0.00;0.00;;;15.70;84.70;;;;;;5032500;28;20136;-67
2023/08/14 04:42:33;;;;;;;0.00;0.00;;;15.70;84.80;;;;;;5032115;28;20040;-67
2023/08/14 04:45:02;;;;;;;0.00;0.00;;;15.70;84.80;;;;;;5014838;28;20479;-68
2023/08/14 04:47:33;;;;;;;0.00;0.00;;;15.70;84.80;;;;;;5031452;28;20038;-67
2023/08/14 04:50:02;;;;;;;;;;;15.70;84.70;;;;;;5032569;28;20436;-67
2023/08/14 04:52:27;;;;;;;0.00;0.00;;;15.70;84.70;;;;;;5014186;28;20424;-67
2023/08/14 04:55:06;;;;;;;0.00;0.00;;;15.70;84.80;;;;;;5032135;28;20139;-68
2023/08/14 04:57:31;;;;;;;0.00;0.00;;;15.70;84.90;;;;;;5031811;28;20421;-67
2023/08/14 04:59:57;;;;;;;0.00;0.00;;;15.80;84.90;;;;;;5032601;28;20041;-67
2023/08/14 05:02:35;;;;;;;0.00;0.00;;;15.80;84.90;;;;;;5031669;28;20124;-67
2023/08/14 05:05:00;;;;;;;0.00;0.00;;;15.80;84.90;;;;;;5030966;28;20053;-67
2023/08/14 05:07:38;;;;;;;0.00;0.00;;;15.80;84.90;;;;;;5028341;28;20061;-67
2023/08/14 05:10:05;;;;;;;0.00;0.00;;;15.80;84.90;;;;;;5029466;28;20037;-66
2023/08/14 05:12:49;;;;;;;0.08;0.08;;;15.80;85.10;;;;;;4996605;28;20080;-67
2023/08/14 05:18:06;;;;;;;0.00;0.00;;;15.90;85.20;;;;;;5026320;28;20049;-67
2023/08/14 05:20:35;;;;;;;0.00;0.00;;;15.90;85.50;;;;;;5031239;28;20037;-67
2023/08/14 05:23:00;;;;;;;0.00;0.00;;;15.90;85.60;;;;;;5035678;28;20394;-67
2023/08/14 05:25:26;;;;;;;0.00;0.00;;;16.00;85.70;;;;;;5028035;28;20072;-68
2023/08/14 05:27:54;;;;;;;0.00;0.00;;;16.00;85.70;;;;;;5031624;28;20038;-68
2023/08/14 05:30:29;;;;;;;0.00;0.00;;;16.00;86.00;;;;;;5031519;28;20048;-68
2023/08/14 05:32:54;;;;;;;0.00;0.00;;;16.10;86.20;;;;;;5047983;28;20037;-67
2023/08/14 05:35:35;;;;;;;0.00;0.00;;;16.10;86.50;;;;;;5035440;28;20375;-67
2023/08/14 05:38:07;;;;;;;0.00;0.00;;;16.10;86.50;;;;;;5030702;28;20045;-67
2023/08/14 05:40:47;;;;;;;0.00;0.00;;;16.20;86.60;;;;;;5030935;28;20544;-68
2023/08/14 05:43:18;;;;;;;0.00;0.00;;;16.20;86.50;;;;;;5031040;28;20042;-67
2023/08/14 05:45:51;;;;;;;0.00;0.00;;;16.20;86.50;;;;;;5031252;28;20045;-67
2023/08/14 05:48:17;;;;;;;0.00;0.00;;;16.30;86.50;;;;;;5030422;28;20073;-67
2023/08/14 05:50:42;;;;;;;0.00;0.00;;;16.30;86.40;;;;;;5036763;28;20085;-67
2023/08/14 05:53:08;;;;;;;0.00;0.00;;;16.40;86.50;;;;;;5031844;28;20083;-67
2023/08/14 05:55:41;;;;;;;0.00;0.00;;;16.40;86.70;;;;;;5030843;28;20611;-67
2023/08/14 05:58:13;;;;;;;0.00;0.00;;;16.40;87.00;;;;;;5030028;28;20145;-66
2023/08/14 06:00:44;;;;;;;0.00;0.00;;;16.50;87.00;;;;;;5030836;28;20084;-67
2023/08/14 06:03:10;;;;;;;;;;;16.50;86.80;;;;;;5030179;28;20096;-67
2023/08/14 06:05:59;;;;;;;0.00;0.00;;;16.50;86.80;;;;;;5030443;28;19925;-67
2023/08/14 06:08:27;;;;;;;0.00;0.00;;;16.60;86.80;;;;;;5021367;28;20085;-67
2023/08/14 06:10:53;;;;;;;0.00;0.00;;;16.60;86.70;;;;;;5029835;28;20037;-67
2023/08/14 06:13:18;;;;;;;0.00;0.00;;;16.80;86.70;;;;;;5030123;28;20048;-67
2023/08/14 06:15:44;;;;;;;0.00;0.00;;;16.80;86.70;;;;;;5031082;28;20045;-67
2023/08/14 06:18:09;;;;;;;0.00;0.00;;;16.90;86.70;;;;;;5028989;28;20045;-67
2023/08/14 06:20:35;;;;;;;0.00;0.00;;;17.00;86.80;;;;;;5029424;28;20056;-67
2023/08/14 06:23:03;;;;;;;0.00;0.00;;;17.00;86.70;;;;;;5033451;28;20043;-67
2023/08/14 06:25:35;;;;;;;0.00;0.00;;;17.00;86.80;;;;;;5032824;28;20038;-66
2023/08/14 06:28:01;;;;;;;0.00;0.00;;;17.30;88.50;;;;;;5027917;28;20087;-66
2023/08/14 06:30:26;;;;;;;0.00;0.00;;;17.40;87.80;;;;;;5029636;28;20069;-67
2023/08/14 06:32:52;;;;;;;0.00;0.00;;;17.50;87.30;;;;;;5035590;28;20063;-67
2023/08/14 06:35:17;;;;;;;0.00;0.00;;;17.50;87.00;;;;;;5029167;28;20072;-67
2023/08/14 06:37:43;;;;;;;0.00;0.00;;;17.50;86.70;;;;;;5035967;28;20048;-68
2023/08/14 06:40:09;;;;;;;0.00;0.00;;;17.60;86.70;;;;;;5029809;28;20037;-67
2023/08/14 06:42:37;;;;;;;0.00;0.00;;;17.60;86.60;;;;;;5030050;28;20041;-66
2023/08/14 06:45:04;;;;;;;0.00;0.00;;;17.50;86.30;;;;;;5029910;28;20689;-67
2023/08/14 06:47:29;;;;;;;0.00;0.00;;;17.60;86.30;;;;;;5030089;28;20096;-65
2023/08/14 06:49:55;;;;;;;0.00;0.00;;;17.60;86.50;;;;;;5033986;28;20073;-65
2023/08/14 06:52:20;;;;;;;0.05;0.05;;;17.70;86.60;;;;;;5029901;28;20055;-65
2023/08/14 06:54:46;;;;;;;0.00;0.00;;;17.80;86.70;;;;;;5030099;28;20099;-65
2023/08/14 06:57:12;;;;;;;0.00;0.00;;;17.90;86.50;;;;;;5029759;28;20045;-65
2023/08/14 06:59:37;;;;;;;0.00;0.00;;;18.00;86.60;;;;;;5025756;28;20317;-69
2023/08/14 07:02:03;;;;;;;0.00;0.00;;;18.10;86.80;;;;;;5034391;23;20427;-66
2023/08/14 07:04:29;;;;;;;0.00;0.00;;;18.30;87.60;;;;;;5037570;28;20486;-68
2023/08/14 07:06:54;;;;;;;0.00;0.00;;;18.60;87.10;;;;;;5032972;28;20049;-64
2023/08/14 07:09:20;;;;;;;0.00;0.00;;;18.60;86.30;;;;;;5033496;28;20041;-65
2023/08/14 07:11:45;;;;;;;0.00;0.00;;;18.60;85.60;;;;;;5043933;28;20041;-65
2023/08/14 07:14:11;;;;;;;0.00;0.00;;;18.60;85.40;;;;;;5045507;28;20041;-64
2023/08/14 07:16:37;;;;;;;0.00;0.00;;;18.60;85.10;;;;;;5038585;28;20041;-65
2023/08/14 07:19:02;;;;;;;0.00;0.00;;;18.60;85.00;;;;;;5038995;28;20036;-65
2023/08/14 07:21:28;;;;;;;0.00;0.00;;;18.60;84.80;;;;;;5023193;28;20061;-65
2023/08/14 07:23:53;;;;;;;0.00;0.00;;;18.50;84.70;;;;;;5002349;28;20037;-65
2023/08/14 07:26:19;;;;;;;0.00;0.00;;;18.50;84.50;;;;;;5014615;28;20418;-64
2023/08/14 07:28:44;;;;;;;0.00;0.00;;;18.60;84.40;;;;;;5019276;28;20490;-64
2023/08/14 07:31:10;;;;;;;0.00;0.00;;;18.50;84.30;;;;;;5016258;28;20466;-65
2023/08/14 07:33:36;;;;;;;0.00;0.00;;;18.60;84.30;;;;;;5014740;28;20563;-64
2023/08/14 07:36:03;;;;;;;0.10;0.10;;;18.60;84.40;;;;;;5017030;28;20046;-65
2023/08/14 07:38:29;;;;;;;0.00;0.00;;;18.70;84.60;;;;;;5011982;28;20133;-65
2023/08/14 07:40:55;;;;;;;0.00;0.00;;;18.70;84.30;;;;;;5010547;28;20132;-65
2023/08/14 07:43:22;;;;;;;0.00;0.00;;;18.70;84.10;;;;;;5017597;28;20041;-65
2023/08/14 07:45:48;;;;;;;0.00;0.00;;;18.80;84.00;;;;;;5015283;28;20060;-65
2023/08/14 07:48:14;;;;;;;0.00;0.00;;;18.90;83.80;;;;;;5014414;28;20046;-65
2023/08/14 07:50:39;;;;;;;0.00;0.00;;;18.90;83.70;;;;;;5015409;28;20465;-65
2023/08/14 07:53:05;;;;;;;0.00;0.00;;;19.00;83.50;;;;;;5018061;28;20038;-65
2023/08/14 07:55:30;;;;;;;0.00;0.00;;;19.00;83.30;;;;;;5014846;28;20128;-65
2023/08/14 07:57:56;;;;;;;0.03;0.03;;;19.10;83.10;;;;;;5014503;28;20045;-65
2023/08/14 08:00:21;;;;;;;0.00;0.00;;;19.20;83.00;;;;;;5017539;28;20045;-64
2023/08/14 08:02:47;;;;;;;0.00;0.00;;;19.20;83.00;;;;;;5014102;28;20152;-65
2023/08/14 08:05:13;;;;;;;0.05;0.05;;;19.20;82.80;;;;;;5013997;28;20049;-65
2023/08/14 08:07:38;;;;;;;0.00;0.00;;;19.30;82.70;;;;;;5017532;28;20057;-65
2023/08/14 08:10:04;;;;;;;0.00;0.00;;;19.40;82.20;;;;;;5015751;28;20552;-65
2023/08/14 08:12:30;;;;;;;0.00;0.00;;;19.50;82.10;;;;;;5020460;28;20046;-65
2023/08/14 08:14:56;;;;;;;0.00;0.00;;;19.60;82.00;;;;;;5007156;28;20753;-65
2023/08/14 08:17:21;;;;;;;0.05;0.05;;;19.60;81.20;;;;;;5018633;28;20133;-66
2023/08/14 08:19:47;;;;;;;0.00;0.00;;;19.60;81.10;;;;;;5018248;28;20038;-66
2023/08/14 08:22:13;;;;;;;0.00;0.00;;;19.60;80.60;;;;;;5018446;28;20041;-65
2023/08/14 08:24:39;;;;;;;0.00;0.00;;;19.70;80.60;;;;;;5011903;28;20494;-65
2023/08/14 08:27:04;;;;;;;0.00;0.00;;;19.80;80.40;;;;;;5017871;28;20061;-65
2023/08/14 08:29:30;;;;;;;0.00;0.00;;;19.90;80.40;;;;;;4999731;28;20037;-65
2023/08/14 08:31:55;;;;;;;0.00;0.00;;;19.90;80.50;;;;;;5015627;28;20476;-66
2023/08/14 08:34:21;;;;;;;0.00;0.00;;;19.90;80.20;;;;;;5001832;28;20050;-66
2023/08/14 08:36:47;;;;;;;0.00;0.00;;;20.00;80.00;;;;;;5011223;28;20133;-65
2023/08/14 08:39:12;;;;;;;0.00;0.00;;;20.10;80.10;;;;;;5015782;28;20445;-66
2023/08/14 08:41:40;;;;;;;0.00;0.00;;;20.10;79.40;;;;;;5023026;28;20053;-66
2023/08/14 08:44:09;;;;;;;0.00;0.00;;;20.10;79.80;;;;;;5000279;28;20045;-65
2023/08/14 08:46:39;;;;;;;0.10;0.10;;;20.10;79.10;;;;;;5014869;28;20526;-65
2023/08/14 08:49:07;;;;;;;0.00;0.00;;;20.20;78.80;;;;;;5015759;28;20038;-66
2023/08/14 08:51:34;;;;;;;0.00;0.00;;;20.20;78.00;;;;;;5021247;28;20057;-66
2023/08/14 08:54:01;;;;;;;0.00;0.00;;;20.30;78.30;;;;;;5020216;28;20068;-66
2023/08/14 08:56:27;;;;;;;0.00;0.00;;;20.30;78.30;;;;;;5014093;28;20125;-66
2023/08/14 08:58:52;;;;;;;0.00;0.00;;;20.30;77.70;;;;;;5007124;28;20136;-65
2023/08/14 09:01:21;;;;;;;0.00;0.00;;;20.30;77.00;;;;;;5018652;28;20061;-66
2023/08/14 09:03:47;;;;;;;0.00;0.00;;;20.20;76.90;;;;;;5020539;28;20502;-66
2023/08/14 09:06:13;;;;;;;0.00;0.00;;;20.30;77.20;;;;;;5021703;28;20052;-65
2023/08/14 09:08:39;;;;;;;0.00;0.00;;;20.30;76.70;;;;;;5017963;28;20052;-65
2023/08/14 09:11:05;;;;;;;0.00;0.00;;;20.40;77.10;;;;;;5019335;28;20058;-65
2023/08/14 09:13:30;;;;;;;0.00;0.00;;;20.50;76.50;;;;;;5023960;28;20049;-65
2023/08/14 09:15:56;;;;;;;0.00;0.00;;;20.50;76.90;;;;;;5013858;28;20061;-66
2023/08/14 09:18:21;;;;;;;0.10;0.10;;;20.60;76.30;;;;;;5014600;28;20083;-65
2023/08/14 09:20:47;;;;;;;0.00;0.00;;;20.80;75.30;;;;;;5021348;28;20415;-66
2023/08/14 09:23:12;;;;;;;0.00;0.00;;;20.80;75.90;;;;;;5018166;28;20490;-65
2023/08/14 09:25:40;;;;;;;0.00;0.00;;;21.00;74.60;;;;;;5008182;28;20040;-66
2023/08/14 09:28:08;;;;;;;0.00;0.00;;;21.10;74.40;;;;;;5020552;28;20045;-65
2023/08/14 09:30:36;;;;;;;0.00;0.00;;;21.10;73.70;;;;;;5017564;28;20052;-64
2023/08/14 09:33:05;;;;;;;0.00;0.00;;;21.10;74.20;;;;;;5017959;28;20069;-66
2023/08/14 09:35:31;;;;;;;0.00;0.00;;;21.20;75.00;;;;;;5022794;28;20053;-71
2023/08/14 09:37:58;;;;;;;0.00;0.00;;;21.30;75.10;;;;;;5024318;28;20383;-65
2023/08/14 09:40:24;;;;;;;0.00;0.00;;;21.40;74.80;;;;;;5019741;28;20041;-66
2023/08/14 09:42:50;;;;;;;0.20;0.20;;;21.50;75.10;;;;;;5018772;28;20092;-66
2023/08/14 09:45:18;;;;;;;0.00;0.00;;;21.50;74.00;;;;;;5017387;28;20033;-65
2023/08/14 09:47:45;;;;;;;0.00;0.00;;;21.60;73.70;;;;;;5020669;28;20045;-66
2023/08/14 09:50:14;;;;;;;0.00;0.00;;;21.60;74.20;;;;;;5023727;28;20422;-65
2023/08/14 09:52:40;;;;;;;0.00;0.00;;;21.70;73.80;;;;;;5023125;28;20054;-66
2023/08/14 09:55:06;;;;;;;0.00;0.00;;;21.70;73.10;;;;;;5022403;28;20072;-66
2023/08/14 09:57:33;;;;;;;0.00;0.00;;;21.80;72.70;;;;;;5019887;28;20497;-66
2023/08/14 09:59:59;;;;;;;0.00;0.00;;;21.80;72.90;;;;;;5013329;28;20045;-65
2023/08/14 10:02:25;;;;;;;0.00;0.00;;;22.00;73.30;;;;;;5013705;28;20566;-65
2023/08/14 10:04:52;;;;;;;0.00;0.00;;;22.00;73.90;;;;;;5018165;28;20052;-65
2023/08/14 10:07:20;;;;;;;0.00;0.00;;;22.00;73.90;;;;;;5014542;28;20124;-66
2023/08/14 10:09:55;;;;;;;0.00;0.00;;;22.00;73.00;;;;;;5014295;28;20092;-65
2023/08/14 10:12:37;;;;;;;0.00;0.00;;;22.00;72.30;;;;;;5015102;28;20426;-65
2023/08/14 10:15:11;;;;;;;0.00;0.00;;;22.10;73.60;;;;;;5015080;28;20085;-66
2023/08/14 10:17:48;;;;;;;0.00;0.00;;;22.10;73.20;;;;;;5017393;28;20107;-66
2023/08/14 10:20:17;;;;;;;0.00;0.00;;;22.10;70.50;;;;;;5021333;28;20056;-66
2023/08/14 10:22:43;;;;;;;0.00;0.00;;;22.10;70.40;;;;;;5015196;28;20058;-65
2023/08/14 10:25:10;;;;;;;0.00;0.00;;;22.20;70.80;;;;;;5012117;28;20049;-65
2023/08/14 10:27:36;;;;;;;0.00;0.00;;;22.20;69.70;;;;;;5010227;28;20136;-66
2023/08/14 10:30:02;;;;;;;0.00;0.00;;;22.30;70.60;;;;;;5010193;28;20593;-65
2023/08/14 10:32:28;;;;;;;0.00;0.00;;;22.30;70.40;;;;;;5028360;28;20146;-65
2023/08/14 10:34:55;;;;;;;0.00;0.00;;;22.40;70.20;;;;;;5021887;28;20080;-65
2023/08/14 10:37:39;;;;;;;0.00;0.00;;;22.40;71.20;;;;;;5024907;28;20046;-65
2023/08/14 10:40:21;;;;;;;0.00;0.00;;;22.50;72.00;;;;;;5029719;28;20041;-65
2023/08/14 10:42:51;;;;;;;0.00;0.00;;;22.60;71.60;;;;;;5028892;28;20064;-66
2023/08/14 10:45:18;;;;;;;0.00;0.00;;;22.60;70.70;;;;;;5029014;28;20037;-66
2023/08/14 10:47:44;;;;;;;0.00;0.00;;;22.70;70.20;;;;;;5028929;28;20203;-65
2023/08/14 10:50:26;;;;;;;0.00;0.00;;;22.80;69.30;;;;;;5029580;28;20034;-65
2023/08/14 10:52:53;;;;;;;0.17;0.17;;;22.80;68.20;;;;;;5028596;28;20537;-66
2023/08/14 10:55:41;;;;;;;0.00;0.00;;;22.90;67.40;;;;;;5029333;28;20054;-65
2023/08/14 10:58:29;;;;;;;0.00;0.00;;;23.00;69.10;;;;;;5022640;28;20121;-66
2023/08/14 11:00:55;;;;;;;0.00;0.00;;;23.00;69.00;;;;;;5012135;28;20749;-66
2023/08/14 11:03:21;;;;;;;0.00;0.00;;;23.00;69.60;;;;;;5015473;28;20057;-66
2023/08/14 11:05:47;;;;;;;0.00;0.00;;;23.10;69.50;;;;;;5014653;28;22882;-66
2023/08/14 11:08:13;;;;;;;0.00;0.00;;;23.30;70.20;;;;;;5014939;28;20126;-66
2023/08/14 11:10:40;;;;;;;0.10;0.10;;;23.20;69.30;;;;;;5018129;28;20065;-66
2023/08/14 11:13:06;;;;;;;0.00;0.00;;;23.30;69.00;;;;;;5012133;28;20055;-66
2023/08/14 11:15:34;;;;;;;0.00;0.00;;;23.40;67.50;;;;;;5023099;28;20448;-66
2023/08/14 11:18:00;;;;;;;0.00;0.00;;;23.50;68.20;;;;;;5020294;28;20796;-66
2023/08/14 11:20:27;;;;;;;0.00;0.00;;;23.60;69.00;;;;;;5014619;28;20041;-66
2023/08/14 11:22:53;;;;;;;0.00;0.00;;;23.70;68.50;;;;;;5017358;28;20553;-66
2023/08/14 11:25:20;;;;;;;0.00;0.00;;;23.70;66.70;;;;;;5016029;28;20048;-66
2023/08/14 11:27:51;;;;;;;0.00;0.00;;;23.80;68.30;;;;;;5015803;28;20463;-66
2023/08/14 11:30:17;;;;;;;1.20;0.50;;;23.80;66.30;;;;;;5016144;28;20046;-66
2023/08/14 11:32:44;;;;;;;0.00;0.00;;;24.00;66.80;;;;;;5018544;28;20495;-66
2023/08/14 11:35:10;;;;;;;0.00;0.00;;;24.00;66.80;;;;;;5017769;28;20132;-66
2023/08/14 11:37:36;;;;;;;0.00;0.00;;;24.10;65.10;;;;;;5017632;28;20467;-66
2023/08/14 11:40:07;;;;;;;0.00;0.00;;;24.30;67.20;;;;;;5012984;28;20125;-66
2023/08/14 11:42:33;;;;;;;0.00;0.00;;;24.30;66.70;;;;;;5017336;28;20057;-66
2023/08/14 11:45:04;;;;;;;0.00;0.00;;;24.30;65.50;;;;;;5019567;28;20065;-66
2023/08/14 11:47:38;;;;;;;0.00;0.00;;;24.30;65.00;;;;;;5016116;28;20049;-66
2023/08/14 11:50:05;;;;;;;0.22;0.22;;;24.40;65.50;;;;;;5011727;28;20042;-66
2023/08/14 11:52:31;;;;;;;0.00;0.00;;;24.50;64.80;;;;;;5010288;28;20060;-66
2023/08/14 11:54:57;;;;;;;0.10;0.10;;;24.50;65.40;;;;;;5017476;28;20639;-66
2023/08/14 11:57:30;;;;;;;0.00;0.00;;;24.40;65.80;;;;;;5013700;28;20053;-66
2023/08/14 11:59:57;;;;;;;0.00;0.00;;;24.50;66.70;;;;;;5011884;28;20113;-67
2023/08/14 12:02:24;;;;;;;0.00;0.00;;;24.50;66.40;;;;;;5018918;28;20042;-67
2023/08/14 12:04:54;;;;;;;0.00;0.00;;;24.50;63.50;;;;;;5000653;28;20053;-67
2023/08/14 12:07:21;;;;;;;0.00;0.00;;;24.60;64.70;;;;;;5011194;28;20057;-67
2023/08/14 12:09:48;;;;;;;0.00;0.00;;;24.80;63.20;;;;;;5013689;28;20069;-68
2023/08/14 12:12:14;;;;;;;0.00;0.00;;;24.90;63.60;;;;;;5021475;28;20510;-68
2023/08/14 12:14:41;;;;;;;0.00;0.00;;;25.00;63.80;;;;;;5017992;28;20520;-68
2023/08/14 12:17:10;;;;;;;0.00;0.00;;;25.10;62.40;;;;;;5016905;28;20081;-68
2023/08/14 12:19:36;;;;;;;0.00;0.00;;;25.10;63.40;;;;;;5017198;28;20494;-67
2023/08/14 12:22:01;;;;;;;0.00;0.00;;;25.20;64.40;;;;;;5022070;28;20053;-67
2023/08/14 12:24:27;;;;;;;0.20;0.20;;;25.20;64.20;;;;;;5017282;28;20184;-67
2023/08/14 12:26:53;;;;;;;0.00;0.00;;;25.30;65.70;;;;;;5017008;28;20042;-68
2023/08/14 12:29:20;;;;;;;0.00;0.00;;;25.40;65.50;;;;;;5016779;28;20041;-68
2023/08/14 12:31:46;;;;;;;0.00;0.00;;;25.50;65.90;;;;;;5015310;28;20499;-68
2023/08/14 12:34:12;;;;;;;0.00;0.00;;;25.60;63.50;;;;;;5011179;28;20049;-68
2023/08/14 12:36:38;;;;;;;0.10;0.10;;;25.70;64.50;;;;;;5017592;28;20072;-67
2023/08/14 12:39:03;;;;;;;0.00;0.00;;;25.70;61.80;;;;;;5013740;28;20038;-68
2023/08/14 12:41:30;;;;;;;0.00;0.00;;;25.80;63.70;;;;;;5012537;28;20057;-67
2023/08/14 12:43:55;;;;;;;0.00;0.00;;;25.80;64.20;;;;;;5020821;28;20071;-68
2023/08/14 12:46:21;;;;;;;0.00;0.00;;;25.90;61.50;;;;;;5032038;28;20057;-68
2023/08/14 12:48:47;;;;;;;0.00;0.00;;;26.00;62.50;;;;;;5032354;28;20441;-68
2023/08/14 12:51:12;;;;;;;0.00;0.00;;;26.00;64.00;;;;;;5031651;28;20136;-67